createdAt,value
2022-10-29T00:02:09.038Z,14.19
2022-10-29T00:04:36.043Z,14.19
2022-10-29T00:07:02.949Z,14.16
2022-10-29T00:09:29.833Z,14.11
2022-10-29T00:11:56.804Z,14.08
2022-10-29T00:14:23.758Z,14.04
2022-10-29T00:16:50.693Z,14.01
2022-10-29T00:19:17.754Z,13.99
2022-10-29T00:21:44.685Z,14.02
2022-10-29T00:24:11.784Z,13.91
2022-10-29T00:26:38.797Z,13.90
2022-10-29T00:29:05.913Z,13.85
2022-10-29T00:31:32.886Z,13.80
2022-10-29T00:34:00.014Z,13.80
2022-10-29T00:36:29.254Z,13.75
2022-10-29T00:38:59.695Z,13.73
2022-10-29T00:41:29.080Z,13.65
2022-10-29T00:44:14.878Z,13.57
2022-10-29T00:46:57.134Z,13.46
2022-10-29T00:49:26.034Z,13.48
2022-10-29T00:51:53.754Z,13.47
2022-10-29T00:54:21.061Z,13.44
2022-10-29T00:56:54.593Z,13.45
2022-10-29T00:59:21.857Z,13.47
2022-10-29T01:01:49.639Z,13.51
2022-10-29T01:04:18.002Z,13.52
2022-10-29T01:06:47.409Z,13.55
2022-10-29T01:09:14.501Z,13.52
2022-10-29T01:12:05.795Z,13.47
2022-10-29T01:14:44.574Z,13.43
2022-10-29T01:17:39.073Z,13.40
2022-10-29T01:20:40.110Z,13.31
2022-10-29T01:23:26.854Z,13.31
2022-10-29T01:26:08.914Z,13.30
2022-10-29T01:28:58.955Z,13.30
2022-10-29T01:31:38.589Z,13.31
2022-10-29T01:34:14.514Z,13.34
2022-10-29T01:36:48.010Z,13.31
2022-10-29T01:39:26.703Z,13.28
2022-10-29T01:42:03.015Z,13.32
2022-10-29T01:44:44.074Z,13.35
2022-10-29T01:47:19.914Z,13.38
2022-10-29T01:50:02.680Z,13.39
2022-10-29T01:52:34.196Z,13.40
2022-10-29T01:55:02.075Z,13.40
2022-10-29T01:57:34.675Z,13.41
2022-10-29T02:00:09.366Z,13.41
2022-10-29T02:03:06.717Z,13.41
2022-10-29T02:05:51.875Z,13.43
2022-10-29T02:08:52.935Z,13.38
2022-10-29T02:11:27.234Z,13.41
2022-10-29T02:14:10.477Z,13.39
2022-10-29T02:16:37.914Z,13.40
2022-10-29T02:19:06.095Z,13.38
2022-10-29T02:21:33.115Z,13.37
2022-10-29T02:24:00.234Z,13.30
2022-10-29T02:26:27.176Z,13.20
2022-10-29T02:28:54.263Z,13.14
2022-10-29T02:31:21.196Z,13.07
2022-10-29T02:33:48.196Z,13.05
2022-10-29T02:36:15.335Z,13.02
2022-10-29T02:38:42.355Z,13.00
2022-10-29T02:41:09.374Z,12.99
2022-10-29T02:43:36.396Z,12.99
2022-10-29T02:46:17.357Z,12.97
2022-10-29T02:48:45.076Z,12.95
2022-10-29T02:51:12.492Z,12.93
2022-10-29T02:53:39.734Z,12.89
2022-10-29T02:56:07.635Z,12.92
2022-10-29T02:58:35.304Z,12.94
2022-10-29T03:01:03.057Z,12.91
2022-10-29T03:03:30.195Z,12.92
2022-10-29T03:05:57.157Z,12.93
2022-10-29T03:08:24.236Z,12.95
2022-10-29T03:10:51.184Z,12.95
2022-10-29T03:13:18.875Z,12.94
2022-10-29T03:15:46.284Z,12.90
2022-10-29T03:18:13.335Z,12.90
2022-10-29T03:20:40.315Z,12.87
2022-10-29T03:23:07.403Z,12.90
2022-10-29T03:25:34.495Z,12.89
2022-10-29T03:28:01.435Z,12.90
2022-10-29T03:30:28.498Z,12.86
2022-10-29T03:32:56.001Z,12.79
2022-10-29T03:35:23.335Z,12.76
2022-10-29T03:37:51.354Z,12.75
2022-10-29T03:40:19.635Z,12.77
2022-10-29T03:42:46.795Z,12.77
2022-10-29T03:45:14.694Z,12.77
2022-10-29T03:47:41.776Z,12.72
2022-10-29T03:50:09.266Z,12.66
2022-10-29T03:52:36.937Z,12.62
2022-10-29T03:55:05.674Z,12.60
2022-10-29T03:57:33.018Z,12.58
2022-10-29T04:00:00.956Z,12.56
2022-10-29T04:02:28.186Z,12.52
2022-10-29T04:04:55.355Z,12.48
2022-10-29T04:07:22.515Z,12.46
2022-10-29T04:09:49.575Z,12.44
2022-10-29T04:12:16.634Z,12.42
2022-10-29T04:14:45.599Z,12.40
2022-10-29T04:17:13.274Z,12.40
2022-10-29T04:19:40.815Z,12.39
2022-10-29T04:30:29.009Z,12.39
2022-10-29T04:32:58.720Z,12.38
2022-10-29T04:35:29.809Z,12.36
2022-10-29T04:37:57.052Z,12.35
2022-10-29T04:40:24.781Z,12.32
2022-10-29T04:42:52.040Z,12.29
2022-10-29T04:45:19.582Z,12.21
2022-10-29T04:47:46.968Z,12.15
2022-10-29T04:50:14.452Z,12.13
2022-10-29T04:52:41.650Z,12.07
2022-10-29T04:55:09.009Z,12.05
2022-10-29T04:57:36.368Z,12.02
2022-10-29T05:00:04.613Z,12.00
2022-10-29T05:02:31.650Z,11.97
2022-10-29T05:04:58.970Z,11.98
2022-10-29T05:07:26.128Z,11.97
2022-10-29T05:09:53.289Z,11.98
2022-10-29T05:12:20.528Z,12.00
2022-10-29T05:14:47.653Z,11.96
2022-10-29T05:17:14.890Z,11.97
2022-10-29T05:19:42.170Z,12.00
2022-10-29T05:22:09.410Z,11.97
2022-10-29T05:24:36.489Z,12.00
2022-10-29T05:27:06.810Z,12.02
2022-10-29T05:29:34.090Z,12.06
2022-10-29T05:32:01.532Z,12.05
2022-10-29T05:34:28.769Z,12.05
2022-10-29T05:36:55.903Z,12.08
2022-10-29T05:39:23.008Z,12.05
2022-10-29T05:41:50.248Z,12.04
2022-10-29T05:44:17.451Z,12.05
2022-10-29T05:46:44.489Z,12.02
2022-10-29T05:49:12.967Z,12.01
2022-10-29T05:51:40.209Z,12.00
2022-10-29T05:54:07.329Z,11.79
2022-10-29T05:56:34.571Z,11.87
2022-10-29T05:59:01.770Z,11.91
2022-10-29T06:01:29.029Z,11.95
2022-10-29T06:03:56.293Z,11.94
2022-10-29T06:06:23.481Z,12.07
2022-10-29T06:08:50.570Z,12.17
2022-10-29T06:11:18.012Z,12.19
2022-10-29T06:13:45.172Z,12.27
2022-10-29T06:16:12.331Z,12.30
2022-10-29T06:18:39.568Z,12.35
2022-10-29T06:21:06.691Z,12.41
2022-10-29T06:23:33.812Z,12.46
2022-10-29T06:26:02.089Z,12.51
2022-10-29T06:28:33.672Z,12.57
2022-10-29T06:31:02.258Z,12.64
2022-10-29T06:33:29.701Z,12.72
2022-10-29T06:36:01.058Z,12.81
2022-10-29T06:38:28.367Z,12.87
2022-10-29T06:40:55.567Z,12.93
2022-10-29T06:43:22.821Z,13.00
2022-10-29T06:45:50.542Z,13.07
2022-10-29T06:48:22.419Z,13.13
2022-10-29T06:50:51.130Z,13.20
2022-10-29T06:53:18.237Z,13.28
2022-10-29T06:55:45.430Z,13.37
2022-10-29T06:58:16.987Z,13.44
2022-10-29T07:00:44.466Z,13.54
2022-10-29T07:03:19.644Z,13.64
2022-10-29T07:05:47.324Z,13.65
2022-10-29T07:08:14.636Z,13.72
2022-10-29T07:10:41.778Z,13.72
2022-10-29T07:13:09.918Z,13.81
2022-10-29T07:15:37.037Z,13.86
2022-10-29T07:18:08.550Z,13.98
2022-10-29T07:20:43.837Z,14.07
2022-10-29T07:23:12.509Z,14.17
2022-10-29T07:25:40.553Z,14.29
2022-10-29T07:28:18.656Z,14.32
2022-10-29T07:30:45.741Z,14.41
2022-10-29T07:33:12.854Z,14.50
2022-10-29T07:35:39.936Z,14.58
2022-10-29T07:38:10.917Z,14.73
2022-10-29T07:40:40.858Z,14.84
2022-10-29T07:43:09.217Z,14.98
2022-10-29T07:45:36.151Z,15.10
2022-10-29T07:48:05.732Z,15.17
2022-10-29T07:50:32.971Z,15.30
2022-10-29T07:53:01.287Z,15.39
2022-10-29T07:58:02.624Z,15.64
2022-10-29T08:00:31.082Z,15.76
2022-10-29T08:02:58.410Z,15.84
2022-10-29T08:05:26.611Z,15.92
2022-10-29T08:07:55.214Z,16.00
2022-10-29T08:10:23.933Z,16.14
2022-10-29T08:12:53.144Z,16.18
2022-10-29T08:15:21.369Z,16.25
2022-10-29T08:17:48.551Z,16.31
2022-10-29T08:20:16.656Z,16.41
2022-10-29T08:22:43.994Z,16.51
2022-10-29T08:25:11.972Z,16.61
2022-10-29T08:27:39.075Z,16.72
2022-10-29T08:30:11.622Z,16.82
2022-10-29T08:32:46.657Z,16.91
2022-10-29T08:35:13.992Z,17.04
2022-10-29T08:37:45.159Z,17.17
2022-10-29T08:40:30.832Z,17.30
2022-10-29T08:43:25.883Z,17.40
2022-10-29T08:45:57.641Z,17.48
2022-10-29T08:48:51.972Z,17.59
2022-10-29T08:51:39.424Z,17.71
2022-10-29T08:57:09.023Z,17.92
2022-10-29T08:59:41.852Z,18.03
2022-10-29T09:02:17.156Z,18.13
2022-10-29T09:04:44.273Z,18.21
2022-10-29T09:07:23.334Z,18.35
2022-10-29T09:10:00.099Z,18.49
2022-10-29T09:12:44.791Z,18.65
2022-10-29T09:15:20.271Z,18.88
2022-10-29T09:17:52.252Z,19.09
2022-10-29T09:20:45.531Z,19.39
2022-10-29T09:23:55.371Z,19.66
2022-10-29T09:26:49.719Z,19.96
2022-10-29T09:29:26.411Z,20.18
2022-10-29T09:32:24.840Z,20.50
2022-10-29T09:34:55.806Z,20.72
2022-10-29T09:37:34.022Z,20.92
2022-10-29T09:40:04.732Z,21.06
2022-10-29T09:42:38.570Z,21.27
2022-10-29T09:45:09.601Z,21.42
2022-10-29T09:48:01.751Z,21.63
2022-10-29T09:51:22.061Z,21.86
2022-10-29T09:53:51.371Z,21.98
2022-10-29T09:56:18.445Z,22.21
2022-10-29T09:58:52.333Z,22.42
2022-10-29T10:01:19.237Z,22.56
2022-10-29T10:03:54.267Z,22.85
2022-10-29T10:06:21.201Z,22.96
2022-10-29T10:09:05.649Z,23.10
2022-10-29T10:11:49.540Z,23.02
2022-10-29T10:14:22.092Z,23.08
2022-10-29T10:17:00.312Z,23.12
2022-10-29T10:19:34.220Z,23.02
2022-10-29T10:22:03.912Z,23.08
2022-10-29T10:24:32.402Z,23.11
2022-10-29T10:26:59.742Z,23.14
2022-10-29T10:29:27.822Z,23.22
2022-10-29T10:31:57.790Z,23.28
2022-10-29T10:34:27.291Z,23.32
2022-10-29T10:37:02.442Z,23.55
2022-10-29T10:39:35.690Z,23.71
2022-10-29T10:42:06.401Z,23.86
2022-10-29T10:44:35.513Z,24.01
2022-10-29T10:47:06.975Z,24.19
2022-10-29T10:49:39.015Z,24.19
2022-10-29T10:52:15.652Z,24.29
2022-10-29T10:54:47.411Z,24.38
2022-10-29T10:57:25.551Z,24.50
2022-10-29T11:00:18.762Z,24.59
2022-10-29T11:13:23.141Z,24.28
2022-10-29T11:16:08.631Z,24.29
2022-10-29T11:18:41.726Z,24.43
2022-10-29T11:21:15.332Z,24.62
2022-10-29T11:24:10.863Z,24.79
2022-10-29T11:26:46.772Z,25.06
2022-10-29T11:29:39.042Z,25.28
2022-10-29T11:32:30.361Z,25.44
2022-10-29T11:35:14.069Z,25.55
2022-10-29T11:37:58.051Z,25.75
2022-10-29T11:40:46.632Z,25.87
2022-10-29T11:43:15.391Z,26.05
2022-10-29T11:46:02.496Z,26.13
2022-10-29T11:48:53.651Z,26.24
2022-10-29T11:51:52.059Z,26.31
2022-10-29T11:54:36.891Z,26.31
2022-10-29T11:57:24.062Z,26.21
2022-10-29T12:00:00.541Z,26.10
2022-10-29T12:02:45.590Z,25.87
2022-10-29T12:05:48.901Z,25.91
2022-10-29T12:08:59.381Z,26.07
2022-10-29T12:12:01.561Z,26.35
2022-10-29T12:14:37.602Z,26.54
2022-10-29T12:17:13.621Z,26.74
2022-10-29T12:20:02.332Z,26.68
2022-10-29T12:22:49.786Z,26.94
2022-10-29T12:25:24.741Z,26.96
2022-10-29T12:28:19.312Z,27.21
2022-10-29T12:31:06.811Z,27.44
2022-10-29T12:34:01.832Z,27.59
2022-10-29T12:36:34.772Z,27.72
2022-10-29T12:39:02.792Z,27.89
2022-10-29T12:41:37.142Z,28.08
2022-10-29T12:44:16.402Z,28.15
2022-10-29T12:47:13.412Z,28.02
2022-10-29T12:49:58.581Z,28.21
2022-10-29T12:52:41.678Z,28.74
2022-10-29T12:55:12.933Z,29.42
2022-10-29T12:57:40.349Z,30.10
2022-10-29T13:00:25.835Z,30.74
2022-10-29T13:02:54.301Z,30.89
2022-10-29T13:05:27.665Z,30.75
2022-10-29T13:07:57.886Z,30.36
2022-10-29T13:10:26.462Z,29.62
2022-10-29T13:12:59.497Z,29.21
2022-10-29T13:15:46.773Z,28.80
2022-10-29T13:18:23.231Z,28.19
2022-10-29T13:20:52.301Z,27.68
2022-10-29T13:23:21.961Z,27.16
2022-10-29T13:25:52.791Z,26.68
2022-10-29T13:28:19.661Z,26.31
2022-10-29T13:30:49.294Z,26.03
2022-10-29T13:33:22.012Z,25.63
2022-10-29T13:36:19.041Z,25.31
2022-10-29T13:39:05.700Z,24.98
2022-10-29T13:41:42.852Z,24.70
2022-10-29T13:44:13.209Z,24.44
2022-10-29T13:47:03.373Z,24.28
2022-10-29T13:49:38.051Z,24.17
2022-10-29T13:52:14.252Z,23.97
2022-10-29T13:55:01.442Z,23.85
2022-10-29T13:57:35.831Z,23.68
2022-10-29T14:00:07.489Z,23.59
2022-10-29T14:02:39.665Z,23.52
2022-10-29T14:05:15.942Z,23.36
2022-10-29T14:07:51.820Z,23.27
2022-10-29T14:10:24.931Z,23.24
2022-10-29T14:13:11.941Z,23.23
2022-10-29T14:15:40.033Z,23.15
2022-10-29T14:18:18.941Z,23.06
2022-10-29T14:20:58.278Z,22.95
2022-10-29T14:23:26.501Z,22.86
2022-10-29T14:25:55.941Z,22.81
2022-10-29T14:28:32.126Z,22.68
2022-10-29T14:31:05.039Z,22.58
2022-10-29T14:33:37.515Z,22.53
2022-10-29T14:36:04.811Z,22.50
2022-10-29T14:38:49.294Z,22.46
2022-10-29T14:41:17.132Z,22.46
2022-10-29T14:43:46.054Z,22.43
2022-10-29T14:46:31.580Z,22.38
2022-10-29T14:49:09.675Z,22.30
2022-10-29T14:51:41.030Z,22.22
2022-10-29T14:54:16.783Z,22.19
2022-10-29T14:56:44.114Z,22.14
2022-10-29T14:59:19.350Z,22.09
2022-10-29T15:01:56.720Z,22.02
2022-10-29T15:04:31.412Z,21.93
2022-10-29T15:07:25.601Z,21.86
2022-10-29T15:10:09.590Z,21.77
2022-10-29T15:12:40.577Z,21.73
2022-10-29T15:15:10.203Z,21.64
2022-10-29T15:17:47.593Z,21.53
2022-10-29T15:20:23.642Z,21.45
2022-10-29T15:22:56.221Z,21.38
2022-10-29T15:25:44.752Z,21.28
2022-10-29T15:28:18.571Z,21.22
2022-10-29T15:30:45.654Z,21.16
2022-10-29T15:33:21.500Z,21.04
2022-10-29T15:35:54.271Z,20.94
2022-10-29T15:38:30.257Z,20.85
2022-10-29T15:41:09.401Z,20.76
2022-10-29T15:43:52.473Z,20.66
2022-10-29T15:46:29.465Z,20.55
2022-10-29T15:48:56.791Z,20.42
2022-10-29T15:51:27.301Z,20.33
2022-10-29T15:54:02.361Z,20.21
2022-10-29T15:56:31.622Z,20.13
2022-10-29T15:59:00.687Z,20.04
2022-10-29T16:01:27.716Z,19.98
2022-10-29T16:03:54.771Z,19.89
2022-10-29T16:06:21.806Z,19.77
2022-10-29T16:08:48.671Z,19.63
2022-10-29T16:11:20.979Z,19.55
2022-10-29T16:13:54.557Z,19.43
2022-10-29T16:16:24.799Z,19.36
2022-10-29T16:18:52.921Z,19.30
2022-10-29T16:21:21.711Z,19.26
2022-10-29T16:23:49.425Z,19.20
2022-10-29T16:26:26.163Z,19.14
2022-10-29T16:28:53.698Z,19.09
2022-10-29T16:31:24.071Z,19.05
2022-10-29T16:33:53.607Z,18.99
2022-10-29T16:36:20.572Z,18.96
2022-10-29T16:38:47.621Z,18.92
2022-10-29T16:41:16.971Z,18.86
2022-10-29T16:43:45.191Z,18.78
2022-10-29T16:46:13.165Z,18.70
2022-10-29T16:48:40.563Z,18.64
2022-10-29T16:51:07.572Z,18.58
2022-10-29T16:53:34.632Z,18.52
2022-10-29T16:56:01.876Z,18.46
2022-10-29T16:58:28.977Z,18.43
2022-10-29T17:01:06.843Z,18.38
2022-10-29T17:03:34.568Z,18.33
2022-10-29T17:06:06.893Z,18.32
2022-10-29T17:08:34.848Z,18.31
2022-10-29T17:11:03.912Z,18.29
2022-10-29T17:13:30.841Z,18.26
2022-10-29T17:15:58.122Z,18.26
2022-10-29T17:18:25.141Z,18.22
2022-10-29T17:20:59.389Z,18.16
2022-10-29T17:23:27.172Z,18.17
2022-10-29T17:25:55.194Z,18.16
2022-10-29T17:28:23.572Z,18.16
2022-10-29T17:30:50.612Z,18.11
2022-10-29T17:33:17.932Z,18.07
2022-10-29T17:35:45.433Z,18.04
2022-10-29T17:38:12.615Z,18.00
2022-10-29T17:40:39.884Z,17.96
2022-10-29T17:43:06.872Z,17.89
2022-10-29T17:45:33.845Z,17.83
2022-10-29T17:48:01.040Z,17.79
2022-10-29T17:50:28.141Z,17.72
2022-10-29T17:52:58.066Z,17.69
2022-10-29T17:55:25.251Z,17.66
2022-10-29T17:57:52.291Z,17.63
2022-10-29T18:00:19.552Z,17.56
2022-10-29T18:02:50.046Z,17.52
2022-10-29T18:05:18.531Z,17.49
2022-10-29T18:07:45.601Z,17.42
2022-10-29T18:10:12.671Z,17.42
2022-10-29T18:12:39.724Z,17.36
2022-10-29T18:15:07.181Z,17.30
2022-10-29T18:17:34.212Z,17.25
2022-10-29T18:20:01.121Z,17.24
2022-10-29T18:22:28.363Z,17.20
2022-10-29T18:24:55.353Z,17.19
2022-10-29T18:27:22.362Z,17.20
2022-10-29T18:29:49.361Z,17.17
2022-10-29T18:32:16.543Z,17.17
2022-10-29T18:34:43.532Z,17.14
2022-10-29T18:37:10.575Z,17.11
2022-10-29T18:39:38.341Z,17.07
2022-10-29T18:42:05.721Z,17.06
2022-10-29T18:44:32.683Z,17.05
2022-10-29T18:46:59.683Z,17.02
2022-10-29T18:49:27.902Z,16.99
2022-10-29T18:51:54.762Z,16.95
2022-10-29T18:54:22.099Z,16.92
2022-10-29T18:56:49.201Z,16.86
2022-10-29T18:59:16.623Z,16.80
2022-10-29T19:01:43.779Z,16.77
2022-10-29T19:04:15.331Z,16.74
2022-10-29T19:06:42.484Z,16.71
2022-10-29T19:09:11.594Z,16.69
2022-10-29T19:11:39.251Z,16.67
2022-10-29T19:14:09.554Z,16.66
2022-10-29T19:16:36.642Z,16.63
2022-10-29T19:21:52.921Z,16.53
2022-10-29T19:24:20.117Z,16.51
2022-10-29T19:26:47.619Z,16.49
2022-10-29T19:29:14.871Z,16.47
2022-10-29T19:31:47.510Z,16.41
2022-10-29T19:34:15.385Z,16.42
2022-10-29T19:36:42.419Z,16.39
2022-10-29T19:39:09.442Z,16.40
2022-10-29T19:41:36.542Z,16.38
2022-10-29T19:44:03.916Z,16.37
2022-10-29T19:46:31.487Z,16.35
2022-10-29T19:48:58.768Z,16.31
2022-10-29T19:51:26.452Z,16.30
2022-10-29T19:53:53.548Z,16.27
2022-10-29T19:56:21.837Z,16.25
2022-10-29T19:58:49.166Z,16.26
2022-10-29T20:01:18.284Z,16.28
2022-10-29T20:03:46.590Z,16.28
2022-10-29T20:06:14.014Z,16.21
2022-10-29T20:08:41.022Z,16.19
2022-10-29T20:11:08.150Z,16.12
2022-10-29T20:13:35.561Z,16.11
2022-10-29T20:16:14.212Z,16.08
2022-10-29T20:18:41.159Z,16.08
2022-10-29T20:21:08.473Z,16.00
2022-10-29T20:23:36.183Z,15.99
2022-10-29T20:26:03.662Z,15.98
2022-10-29T20:28:31.170Z,15.92
2022-10-29T20:31:16.801Z,15.89
2022-10-29T20:33:49.571Z,15.84
2022-10-29T20:36:16.790Z,15.81
2022-10-29T20:38:43.925Z,15.80
2022-10-29T20:41:10.892Z,15.73
2022-10-29T20:43:37.851Z,15.71
2022-10-29T20:46:05.019Z,15.68
2022-10-29T20:48:32.922Z,15.65
2022-10-29T20:50:59.802Z,15.63
2022-10-29T20:53:26.758Z,15.61
2022-10-29T20:55:54.012Z,15.55
2022-10-29T20:58:22.103Z,15.54
2022-10-29T21:00:49.887Z,15.51
2022-10-29T21:03:18.454Z,15.50
2022-10-29T21:05:45.473Z,15.51
2022-10-29T21:08:12.591Z,15.53
2022-10-29T21:10:39.594Z,15.50
2022-10-29T21:13:06.740Z,15.46
2022-10-29T21:15:36.999Z,15.42
2022-10-29T21:18:04.261Z,15.38
2022-10-29T21:20:31.131Z,15.31
2022-10-29T21:22:58.356Z,15.29
2022-10-29T21:25:25.592Z,15.30
2022-10-29T21:27:54.819Z,15.28
2022-10-29T21:30:22.288Z,15.26
2022-10-29T21:32:49.250Z,15.28
2022-10-29T21:35:16.452Z,15.28
2022-10-29T21:37:43.651Z,15.31
2022-10-29T21:40:11.204Z,15.32
2022-10-29T21:42:38.591Z,15.31
2022-10-29T21:45:06.271Z,15.31
2022-10-29T21:47:33.366Z,15.35
2022-10-29T21:50:00.271Z,15.34
2022-10-29T21:52:27.301Z,15.33
2022-10-29T21:54:54.233Z,15.32
2022-10-29T21:57:21.191Z,15.31
2022-10-29T21:59:48.164Z,15.27
2022-10-29T22:02:15.229Z,15.22
2022-10-29T22:04:42.162Z,15.16
2022-10-29T22:07:09.812Z,15.10
2022-10-29T22:09:36.857Z,15.07
2022-10-29T22:12:03.873Z,15.03
2022-10-29T22:14:30.903Z,14.97
2022-10-29T22:16:58.932Z,14.93
2022-10-29T22:19:25.791Z,14.92
2022-10-29T22:21:56.151Z,14.91
2022-10-29T22:24:23.260Z,14.87
2022-10-29T22:26:50.132Z,14.88
2022-10-29T22:29:17.192Z,14.85
2022-10-29T22:31:44.171Z,14.86
2022-10-29T22:34:11.101Z,14.83
2022-10-29T22:36:38.206Z,14.74
2022-10-29T22:39:05.391Z,14.70
2022-10-29T22:41:32.353Z,14.62
2022-10-29T22:43:59.664Z,14.62
2022-10-29T22:46:29.766Z,14.61
2022-10-29T22:48:57.213Z,14.58
2022-10-29T22:51:26.592Z,14.60
2022-10-29T22:54:11.332Z,14.57
2022-10-29T22:56:39.322Z,14.53
2022-10-29T22:59:06.733Z,14.53
2022-10-29T23:01:42.121Z,14.51
2022-10-29T23:04:12.345Z,14.49
2022-10-29T23:06:39.439Z,14.49
2022-10-29T23:09:07.570Z,14.47
2022-10-29T23:11:39.167Z,14.45
2022-10-29T23:14:06.345Z,14.44
2022-10-29T23:16:34.519Z,14.47
2022-10-29T23:19:02.481Z,14.44
2022-10-29T23:21:29.920Z,14.38
2022-10-29T23:23:57.280Z,14.32
2022-10-29T23:26:25.644Z,14.28
2022-10-29T23:28:53.096Z,14.26
2022-10-29T23:31:23.301Z,14.27
2022-10-29T23:33:52.369Z,14.26
2022-10-29T23:36:21.111Z,14.26
2022-10-29T23:38:48.472Z,14.30
2022-10-29T23:41:15.779Z,14.30
2022-10-29T23:43:42.743Z,14.30
2022-10-29T23:46:09.702Z,14.25
2022-10-29T23:48:36.744Z,14.23
2022-10-29T23:51:03.843Z,14.17
2022-10-29T23:53:30.777Z,14.18
2022-10-29T23:55:57.791Z,14.19
2022-10-29T23:58:25.372Z,14.19
